createdAt,value
2023-03-28T00:00:07.399Z,77.91
2023-03-28T00:01:02.653Z,78.01
2023-03-28T00:01:58.354Z,78.08
2023-03-28T00:02:53.633Z,77.79
2023-03-28T00:03:49.345Z,77.69
2023-03-28T00:04:44.595Z,77.88
2023-03-28T00:05:39.808Z,78.03
2023-03-28T00:06:35.579Z,78.07
2023-03-28T00:07:30.781Z,78.02
2023-03-28T00:08:25.952Z,78.25
2023-03-28T00:09:22.394Z,78.22
2023-03-28T00:10:17.312Z,78.24
2023-03-28T00:11:12.312Z,78.50
2023-03-28T00:12:07.423Z,78.39
2023-03-28T00:13:02.484Z,78.31
2023-03-28T00:13:57.615Z,78.46
2023-03-28T00:14:52.778Z,78.62
2023-03-28T00:15:47.735Z,78.50
2023-03-28T00:16:42.790Z,78.46
2023-03-28T00:17:37.896Z,78.56
2023-03-28T00:18:34.440Z,79.00
2023-03-28T00:19:29.490Z,78.68
2023-03-28T00:20:24.437Z,78.28
2023-03-28T00:21:19.498Z,78.17
2023-03-28T00:22:14.556Z,78.26
2023-03-28T00:23:09.617Z,78.26
2023-03-28T00:24:04.804Z,78.27
2023-03-28T00:24:59.811Z,78.27
2023-03-28T00:25:54.932Z,78.60
2023-03-28T00:26:50.145Z,78.93
2023-03-28T00:27:45.265Z,78.74
2023-03-28T00:28:40.350Z,78.39
2023-03-28T00:29:38.374Z,78.16
2023-03-28T00:30:33.355Z,77.98
2023-03-28T00:31:28.311Z,78.07
2023-03-28T00:32:23.451Z,78.43
2023-03-28T00:33:18.417Z,78.47
2023-03-28T00:34:13.588Z,78.24
2023-03-28T00:35:08.534Z,78.41
2023-03-28T00:36:04.006Z,78.50
2023-03-28T00:36:58.703Z,78.53
2023-03-28T00:37:53.823Z,78.56
2023-03-28T00:38:49.018Z,78.22
2023-03-28T00:39:44.364Z,78.23
2023-03-28T00:40:39.157Z,78.15
2023-03-28T00:41:34.305Z,77.99
2023-03-28T00:42:29.383Z,77.98
2023-03-28T00:43:24.504Z,78.15
2023-03-28T00:44:19.603Z,78.19
2023-03-28T00:45:14.710Z,78.11
2023-03-28T00:46:09.723Z,78.13
2023-03-28T00:47:05.612Z,78.03
2023-03-28T00:48:00.774Z,77.85
2023-03-28T00:48:55.890Z,77.85
2023-03-28T00:49:51.839Z,78.07
2023-03-28T00:50:47.018Z,78.16
2023-03-28T00:51:42.791Z,78.18
2023-03-28T00:52:38.015Z,77.95
2023-03-28T00:53:33.285Z,77.83
2023-03-28T00:54:29.109Z,77.81
2023-03-28T00:55:24.529Z,77.88
2023-03-28T00:56:19.646Z,77.97
2023-03-28T00:57:16.424Z,78.12
2023-03-28T00:58:11.595Z,78.30
2023-03-28T00:59:07.353Z,78.45
2023-03-28T01:00:02.597Z,78.47
2023-03-28T01:00:57.841Z,78.37
2023-03-28T01:01:53.708Z,78.31
2023-03-28T01:02:48.931Z,78.51
2023-03-28T01:03:44.867Z,78.64
2023-03-28T01:04:39.716Z,78.82
2023-03-28T01:05:35.018Z,78.91
2023-03-28T01:06:30.816Z,78.90
2023-03-28T01:07:26.097Z,78.73
2023-03-28T01:08:21.419Z,78.76
2023-03-28T01:09:17.529Z,79.09
2023-03-28T01:10:12.749Z,78.84
2023-03-28T01:11:08.607Z,78.55
2023-03-28T01:12:03.807Z,78.44
2023-03-28T01:12:59.111Z,78.44
2023-03-28T01:13:54.731Z,78.33
2023-03-28T01:14:49.978Z,78.17
2023-03-28T01:15:45.990Z,77.95
2023-03-28T01:16:41.151Z,77.90
2023-03-28T01:17:36.396Z,78.02
2023-03-28T01:18:32.078Z,78.05
2023-03-28T01:19:27.331Z,78.03
2023-03-28T01:20:22.577Z,78.20
2023-03-28T01:21:18.917Z,78.35
2023-03-28T01:22:14.045Z,78.43
2023-03-28T01:23:09.818Z,78.51
2023-03-28T01:24:11.567Z,78.91
2023-03-28T01:25:01.761Z,79.29
2023-03-28T01:25:56.241Z,79.33
2023-03-28T01:26:51.993Z,79.38
2023-03-28T01:27:47.168Z,79.32
2023-03-28T01:28:42.337Z,79.19
2023-03-28T01:29:38.284Z,79.16
2023-03-28T01:30:33.485Z,79.29
2023-03-28T01:31:29.550Z,79.47
2023-03-28T01:32:24.572Z,79.29
2023-03-28T01:33:19.870Z,79.11
2023-03-28T01:34:15.626Z,79.03
2023-03-28T01:35:10.873Z,79.18
2023-03-28T01:36:06.067Z,79.30
2023-03-28T01:37:02.394Z,79.36
2023-03-28T01:37:57.556Z,79.25
2023-03-28T01:38:53.479Z,79.05
2023-03-28T01:39:48.603Z,79.24
2023-03-28T01:40:43.941Z,79.19
2023-03-28T01:41:39.569Z,79.16
2023-03-28T01:42:34.776Z,79.20
2023-03-28T01:43:30.528Z,79.19
2023-03-28T01:44:25.762Z,78.91
2023-03-28T01:45:21.086Z,78.94
2023-03-28T01:46:16.287Z,78.84
2023-03-28T01:47:11.352Z,78.79
2023-03-28T01:48:07.196Z,78.58
2023-03-28T01:49:02.342Z,78.37
2023-03-28T01:49:57.731Z,78.03
2023-03-28T01:50:53.397Z,77.89
2023-03-28T01:51:48.689Z,77.72
2023-03-28T01:52:44.464Z,77.84
2023-03-28T01:53:39.649Z,77.75
2023-03-28T01:54:35.053Z,77.64
2023-03-28T01:55:30.723Z,77.70
2023-03-28T01:56:26.003Z,77.84
2023-03-28T01:57:21.470Z,78.09
2023-03-28T01:58:17.429Z,78.07
2023-03-28T01:59:12.660Z,78.10
2023-03-28T02:00:08.473Z,77.97
2023-03-28T02:01:03.727Z,77.90
2023-03-28T02:01:58.874Z,77.80
2023-03-28T02:02:54.103Z,77.60
2023-03-28T02:03:49.449Z,77.58
2023-03-28T02:04:44.413Z,77.67
2023-03-28T02:05:39.560Z,77.57
2023-03-28T02:06:34.651Z,77.36
2023-03-28T02:07:29.945Z,77.28
2023-03-28T02:08:24.747Z,77.08
2023-03-28T02:09:19.901Z,76.95
2023-03-28T02:10:14.945Z,76.87
2023-03-28T02:11:10.130Z,76.47
2023-03-28T02:12:08.355Z,76.29
2023-03-28T02:13:03.322Z,76.49
2023-03-28T02:13:58.284Z,76.59
2023-03-28T02:14:53.378Z,76.69
2023-03-28T02:15:48.483Z,76.77
2023-03-28T02:16:43.639Z,76.93
2023-03-28T02:17:38.885Z,77.12
2023-03-28T02:18:33.715Z,77.61
2023-03-28T02:19:28.701Z,77.83
2023-03-28T02:20:23.784Z,77.93
2023-03-28T02:21:18.795Z,77.98
2023-03-28T02:22:13.907Z,77.86
2023-03-28T02:23:08.872Z,77.86
2023-03-28T02:24:04.020Z,78.05
2023-03-28T02:24:59.067Z,78.14
2023-03-28T02:25:54.202Z,78.29
2023-03-28T02:26:49.264Z,78.31
2023-03-28T02:27:44.417Z,78.23
2023-03-28T02:28:39.364Z,78.27
2023-03-28T02:29:34.464Z,78.26
2023-03-28T02:30:29.556Z,78.28
2023-03-28T02:31:24.706Z,78.44
2023-03-28T02:32:19.739Z,78.47
2023-03-28T02:33:15.072Z,78.49
2023-03-28T02:34:10.031Z,78.62
2023-03-28T02:35:05.229Z,78.71
2023-03-28T02:36:00.609Z,78.96
2023-03-28T02:36:57.161Z,78.90
2023-03-28T02:37:50.643Z,78.86
2023-03-28T02:38:46.002Z,78.82
2023-03-28T02:39:40.996Z,78.68
2023-03-28T02:40:36.326Z,78.58
2023-03-28T02:41:31.357Z,78.56
2023-03-28T02:42:26.708Z,78.59
2023-03-28T02:43:21.842Z,78.59
2023-03-28T02:44:20.760Z,78.64
2023-03-28T02:45:12.320Z,78.83
2023-03-28T02:46:07.520Z,78.89
2023-03-28T02:47:02.686Z,78.88
2023-03-28T02:47:57.891Z,78.89
2023-03-28T02:48:53.169Z,78.87
2023-03-28T02:49:50.680Z,78.92
2023-03-28T02:50:43.293Z,79.09
2023-03-28T02:51:38.485Z,79.16
2023-03-28T02:52:33.768Z,79.21
2023-03-28T02:53:28.823Z,79.25
2023-03-28T02:54:24.143Z,79.25
2023-03-28T02:55:19.190Z,79.21
2023-03-28T02:56:14.346Z,79.18
2023-03-28T02:57:09.719Z,79.22
2023-03-28T02:58:04.705Z,79.26
2023-03-28T02:58:59.876Z,79.22
2023-03-28T02:59:55.221Z,79.16
2023-03-28T03:00:50.268Z,79.18
2023-03-28T03:01:45.443Z,79.27
2023-03-28T03:02:40.649Z,79.37
2023-03-28T03:03:35.855Z,79.52
2023-03-28T03:04:31.094Z,79.65
2023-03-28T03:05:26.406Z,79.70
2023-03-28T03:06:21.442Z,79.75
2023-03-28T03:07:16.601Z,79.75
2023-03-28T03:08:11.780Z,79.76
2023-03-28T03:09:06.907Z,79.80
2023-03-28T03:10:02.161Z,79.89
2023-03-28T03:10:57.040Z,79.97
2023-03-28T03:11:52.066Z,80.05
2023-03-28T03:12:47.145Z,80.10
2023-03-28T03:13:46.668Z,80.08
2023-03-28T03:14:42.085Z,80.07
2023-03-28T03:15:37.088Z,80.09
2023-03-28T03:16:32.803Z,80.07
2023-03-28T03:17:28.001Z,80.12
2023-03-28T03:18:23.155Z,80.15
2023-03-28T03:19:19.453Z,80.04
2023-03-28T03:20:14.844Z,79.95
2023-03-28T03:21:10.442Z,79.90
2023-03-28T03:22:05.603Z,79.84
2023-03-28T03:23:00.788Z,79.83
2023-03-28T03:23:56.665Z,79.73
2023-03-28T03:24:51.915Z,79.79
2023-03-28T03:25:47.747Z,79.84
2023-03-28T03:26:42.840Z,79.86
2023-03-28T03:27:38.119Z,79.82
2023-03-28T03:28:34.046Z,79.85
2023-03-28T03:29:39.496Z,79.90
2023-03-28T03:30:25.584Z,79.99
2023-03-28T03:31:19.665Z,80.07
2023-03-28T03:32:15.490Z,80.11
2023-03-28T03:33:10.597Z,80.07
2023-03-28T03:34:05.770Z,80.10
2023-03-28T03:35:02.074Z,80.09
2023-03-28T03:35:57.477Z,79.98
2023-03-28T03:36:52.966Z,79.97
2023-03-28T03:37:48.145Z,79.97
2023-03-28T03:38:43.320Z,79.90
2023-03-28T03:39:39.227Z,79.93
2023-03-28T03:40:34.568Z,79.90
2023-03-28T03:41:30.319Z,79.93
2023-03-28T03:42:25.350Z,79.98
2023-03-28T03:43:20.689Z,79.93
2023-03-28T03:44:16.449Z,80.04
2023-03-28T03:45:11.649Z,80.15
2023-03-28T03:46:07.095Z,80.08
2023-03-28T03:47:03.017Z,80.08
2023-03-28T03:47:58.201Z,80.02
2023-03-28T03:48:54.107Z,80.00
2023-03-28T03:49:49.248Z,80.16
2023-03-28T03:50:44.614Z,80.28
2023-03-28T03:51:40.228Z,80.29
2023-03-28T03:52:35.444Z,80.20
2023-03-28T03:53:31.224Z,80.08
2023-03-28T03:54:26.393Z,79.84
2023-03-28T03:55:21.716Z,79.69
2023-03-28T03:56:17.522Z,79.60
2023-03-28T03:57:12.717Z,79.54
2023-03-28T03:58:07.918Z,79.51
2023-03-28T03:59:04.030Z,79.51
2023-03-28T03:59:59.252Z,79.43
2023-03-28T04:00:54.997Z,79.59
2023-03-28T04:01:50.184Z,79.74
2023-03-28T04:02:45.241Z,79.84
2023-03-28T04:03:41.167Z,79.96
2023-03-28T04:04:36.319Z,80.03
2023-03-28T04:05:32.218Z,80.19
2023-03-28T04:06:27.366Z,80.54
2023-03-28T04:07:22.590Z,80.67
2023-03-28T04:08:18.335Z,80.80
2023-03-28T04:09:13.556Z,80.77
2023-03-28T04:10:08.701Z,80.73
2023-03-28T04:11:05.195Z,80.66
2023-03-28T04:12:00.236Z,80.60
2023-03-28T04:12:56.001Z,80.57
2023-03-28T04:13:51.147Z,80.56
2023-03-28T04:14:46.327Z,80.52
2023-03-28T04:15:41.387Z,80.50
2023-03-28T04:16:40.366Z,80.31
2023-03-28T04:17:32.482Z,80.36
2023-03-28T04:18:26.634Z,80.41
2023-03-28T04:19:21.669Z,80.38
2023-03-28T04:20:16.697Z,80.35
2023-03-28T04:21:11.862Z,80.32
2023-03-28T04:22:06.955Z,80.38
2023-03-28T04:23:01.921Z,80.53
2023-03-28T04:23:57.070Z,80.47
2023-03-28T04:24:52.063Z,80.34
2023-03-28T04:25:47.156Z,80.29
2023-03-28T04:26:42.249Z,80.12
2023-03-28T04:27:38.037Z,80.00
2023-03-28T04:28:33.184Z,79.86
2023-03-28T04:29:28.403Z,79.73
2023-03-28T04:30:24.110Z,79.62
2023-03-28T04:31:19.347Z,79.65
2023-03-28T04:32:14.525Z,79.61
2023-03-28T04:33:09.768Z,79.77
2023-03-28T04:34:04.885Z,80.09
2023-03-28T04:35:00.119Z,80.41
2023-03-28T04:35:55.552Z,80.68
2023-03-28T04:36:51.459Z,80.78
2023-03-28T04:37:46.621Z,80.80
2023-03-28T04:38:41.937Z,80.77
2023-03-28T04:39:37.536Z,80.71
2023-03-28T04:40:32.725Z,80.59
2023-03-28T04:41:27.977Z,80.43
2023-03-28T04:42:23.132Z,80.53
2023-03-28T04:43:18.172Z,80.53
2023-03-28T04:44:13.316Z,80.38
2023-03-28T04:45:08.411Z,80.48
2023-03-28T04:46:03.732Z,80.47
2023-03-28T04:46:58.731Z,80.44
2023-03-28T04:47:53.691Z,80.34
2023-03-28T04:48:48.739Z,80.15
2023-03-28T04:49:44.782Z,80.04
2023-03-28T04:50:38.839Z,80.01
2023-03-28T04:51:35.890Z,80.11
2023-03-28T04:52:30.870Z,80.33
2023-03-28T04:53:25.886Z,80.52
2023-03-28T04:54:20.875Z,80.64
2023-03-28T04:55:15.991Z,80.70
2023-03-28T04:56:10.917Z,80.71
2023-03-28T04:57:06.224Z,80.97
2023-03-28T04:58:01.051Z,81.13
2023-03-28T04:58:56.220Z,81.06
2023-03-28T04:59:51.304Z,80.88
2023-03-28T05:00:46.455Z,80.81
2023-03-28T05:01:41.647Z,80.91
2023-03-28T05:02:37.264Z,80.88
2023-03-28T05:03:32.347Z,80.92
2023-03-28T05:04:27.579Z,80.91
2023-03-28T05:05:23.339Z,80.96
2023-03-28T05:06:18.665Z,80.99
2023-03-28T05:07:14.614Z,80.97
2023-03-28T05:08:09.844Z,81.00
2023-03-28T05:09:05.128Z,81.14
2023-03-28T05:10:01.061Z,81.25
2023-03-28T05:10:56.403Z,81.25
2023-03-28T05:11:52.058Z,81.17
2023-03-28T05:12:47.996Z,81.07
2023-03-28T05:13:43.378Z,81.06
2023-03-28T05:14:39.155Z,81.27
2023-03-28T05:15:34.574Z,81.23
2023-03-28T05:16:29.946Z,81.21
2023-03-28T05:17:25.792Z,81.14
2023-03-28T05:18:20.822Z,81.15
2023-03-28T05:19:16.659Z,81.34
2023-03-28T05:20:12.029Z,81.10
2023-03-28T05:21:07.540Z,80.79
2023-03-28T05:22:03.343Z,80.72
2023-03-28T05:22:58.565Z,80.61
2023-03-28T05:23:53.765Z,80.47
2023-03-28T05:24:50.101Z,80.49
2023-03-28T05:25:45.451Z,80.45
2023-03-28T05:26:41.268Z,80.62
2023-03-28T05:27:36.608Z,80.61
2023-03-28T05:28:31.934Z,80.66
2023-03-28T05:29:27.578Z,80.80
2023-03-28T05:30:22.895Z,80.74
2023-03-28T05:31:18.583Z,80.63
2023-03-28T05:32:14.013Z,80.60
2023-03-28T05:33:09.270Z,80.57
2023-03-28T05:34:05.117Z,80.63
2023-03-28T05:35:00.415Z,80.65
2023-03-28T05:35:55.865Z,80.65
2023-03-28T05:36:52.114Z,80.70
2023-03-28T05:37:47.268Z,80.65
2023-03-28T05:38:42.940Z,80.62
2023-03-28T05:39:38.271Z,80.55
2023-03-28T05:40:33.503Z,80.44
2023-03-28T05:41:29.609Z,80.28
2023-03-28T05:42:24.725Z,80.18
2023-03-28T05:43:20.736Z,80.18
2023-03-28T05:44:17.470Z,80.29
2023-03-28T05:45:11.267Z,80.34
2023-03-28T05:46:06.610Z,80.32
2023-03-28T05:47:01.787Z,80.50
2023-03-28T05:47:56.750Z,80.41
2023-03-28T05:48:57.132Z,80.42
2023-03-28T05:49:54.810Z,80.60
2023-03-28T05:50:47.798Z,80.78
2023-03-28T05:51:43.740Z,80.81
2023-03-28T05:52:39.066Z,80.73
2023-03-28T05:53:34.615Z,80.73
2023-03-28T05:54:30.670Z,80.65
2023-03-28T05:55:26.193Z,80.58
2023-03-28T05:56:22.041Z,80.53
2023-03-28T05:57:17.404Z,80.42
2023-03-28T05:58:12.791Z,80.36
2023-03-28T05:59:08.553Z,80.32
2023-03-28T06:00:03.969Z,80.22
2023-03-28T06:00:59.976Z,80.08
2023-03-28T06:01:55.270Z,80.05
2023-03-28T06:02:50.586Z,79.86
2023-03-28T06:03:46.068Z,79.45
2023-03-28T06:04:41.345Z,78.98
2023-03-28T06:05:37.198Z,78.76
2023-03-28T06:06:32.720Z,78.60
2023-03-28T06:07:39.193Z,78.64
2023-03-28T06:08:24.878Z,79.04
2023-03-28T06:09:19.291Z,79.25
2023-03-28T06:10:14.754Z,79.34
2023-03-28T06:11:10.233Z,79.21
2023-03-28T06:12:05.130Z,79.00
2023-03-28T06:13:00.231Z,78.62
2023-03-28T06:13:55.310Z,78.41
2023-03-28T06:14:50.410Z,78.26
2023-03-28T06:15:45.534Z,77.91
2023-03-28T06:16:40.612Z,77.26
2023-03-28T06:17:35.662Z,76.62
2023-03-28T06:18:30.624Z,76.24
2023-03-28T06:19:25.737Z,76.11
2023-03-28T06:20:20.666Z,75.85
2023-03-28T06:21:15.773Z,75.41
2023-03-28T06:22:10.807Z,75.28
2023-03-28T06:23:05.930Z,75.32
2023-03-28T06:24:00.938Z,75.08
2023-03-28T06:24:56.031Z,74.90
2023-03-28T06:25:50.965Z,74.72
2023-03-28T06:26:46.124Z,74.50
2023-03-28T06:27:41.080Z,74.40
2023-03-28T06:28:38.854Z,74.56
2023-03-28T06:29:33.863Z,74.78
2023-03-28T06:30:28.995Z,74.45
2023-03-28T06:31:24.201Z,74.09
2023-03-28T06:32:19.218Z,73.46
2023-03-28T06:33:14.173Z,73.14
2023-03-28T06:34:09.169Z,73.04
2023-03-28T06:35:04.249Z,72.79
2023-03-28T06:35:59.676Z,72.53
2023-03-28T06:36:54.428Z,72.36
2023-03-28T06:37:50.618Z,72.10
2023-03-28T06:38:46.164Z,72.07
2023-03-28T06:39:41.961Z,71.80
2023-03-28T06:40:37.440Z,71.12
2023-03-28T06:41:32.833Z,70.81
2023-03-28T06:42:28.825Z,70.52
2023-03-28T06:43:24.308Z,70.21
2023-03-28T06:44:19.980Z,70.06
2023-03-28T06:45:15.517Z,69.44
2023-03-28T06:46:10.996Z,69.06
2023-03-28T06:47:06.767Z,68.46
2023-03-28T06:48:02.122Z,68.50
2023-03-28T06:48:57.501Z,68.69
2023-03-28T06:49:53.876Z,68.62
2023-03-28T06:50:49.267Z,68.78
2023-03-28T06:51:44.989Z,68.81
2023-03-28T06:52:40.485Z,68.33
2023-03-28T06:53:35.966Z,67.96
2023-03-28T06:54:31.576Z,67.94
2023-03-28T06:55:27.114Z,67.69
2023-03-28T06:56:22.742Z,67.48
2023-03-28T06:57:18.106Z,67.11
2023-03-28T06:58:13.424Z,66.90
2023-03-28T06:59:09.165Z,66.59
2023-03-28T07:00:04.697Z,66.24
2023-03-28T07:01:00.210Z,65.90
2023-03-28T07:01:56.617Z,65.81
2023-03-28T07:02:52.002Z,65.96
2023-03-28T07:03:49.946Z,66.57
2023-03-28T07:04:43.058Z,66.71
2023-03-28T07:05:38.604Z,66.52
2023-03-28T07:06:34.204Z,65.69
2023-03-28T07:07:29.709Z,65.63
2023-03-28T07:08:25.455Z,65.94
2023-03-28T07:09:20.928Z,65.91
2023-03-28T07:10:16.413Z,65.46
2023-03-28T07:11:12.046Z,64.73
2023-03-28T07:12:07.436Z,64.05
2023-03-28T07:13:02.945Z,64.37
2023-03-28T07:13:59.278Z,64.32
2023-03-28T07:14:54.665Z,63.87
2023-03-28T07:15:50.476Z,64.59
2023-03-28T07:16:45.913Z,65.06
2023-03-28T07:17:41.366Z,65.40
2023-03-28T07:18:37.286Z,64.53
2023-03-28T07:19:32.620Z,63.85
2023-03-28T07:20:28.638Z,63.77
2023-03-28T07:21:23.838Z,64.08
2023-03-28T07:22:19.529Z,64.61
2023-03-28T07:23:15.238Z,64.85
2023-03-28T07:24:10.702Z,64.37
2023-03-28T07:25:06.054Z,63.94
2023-03-28T07:26:04.884Z,63.65
2023-03-28T07:27:15.326Z,64.17
2023-03-28T07:28:27.793Z,65.39
2023-03-28T07:29:22.362Z,65.82
2023-03-28T07:30:18.103Z,65.17
2023-03-28T07:31:13.677Z,64.32
2023-03-28T07:32:09.053Z,64.39
2023-03-28T07:33:14.833Z,64.77
2023-03-28T07:34:01.278Z,65.29
2023-03-28T07:34:55.601Z,64.85
2023-03-28T07:35:51.365Z,64.99
2023-03-28T07:36:46.875Z,63.74
2023-03-28T07:37:42.287Z,63.30
2023-03-28T07:38:37.661Z,63.85
2023-03-28T07:39:33.055Z,64.59
2023-03-28T07:40:28.724Z,64.86
2023-03-28T07:41:24.196Z,64.89
2023-03-28T07:42:19.683Z,64.35
2023-03-28T07:43:15.148Z,63.56
2023-03-28T07:44:10.539Z,62.85
2023-03-28T07:45:05.916Z,62.60
2023-03-28T07:46:01.343Z,62.79
2023-03-28T07:46:56.742Z,63.56
2023-03-28T07:47:52.128Z,63.90
2023-03-28T07:48:47.517Z,64.59
2023-03-28T07:49:43.006Z,64.57
2023-03-28T07:50:38.565Z,65.32
2023-03-28T07:51:33.758Z,65.52
2023-03-28T07:52:29.156Z,64.41
2023-03-28T07:53:24.593Z,63.28
2023-03-28T07:54:20.203Z,63.60
2023-03-28T07:55:15.846Z,64.18
2023-03-28T07:56:11.179Z,63.83
2023-03-28T07:57:06.697Z,62.47
2023-03-28T07:58:02.177Z,61.29
2023-03-28T07:58:57.625Z,61.01
2023-03-28T07:59:53.264Z,60.78
2023-03-28T08:00:48.795Z,59.97
2023-03-28T08:01:44.089Z,59.82
2023-03-28T08:02:41.986Z,59.45
2023-03-28T08:03:35.172Z,60.29
2023-03-28T08:04:30.654Z,60.50
2023-03-28T08:05:26.100Z,60.18
2023-03-28T08:06:31.767Z,59.32
2023-03-28T08:07:17.822Z,59.01
2023-03-28T08:08:12.235Z,58.61
2023-03-28T08:09:07.699Z,58.28
2023-03-28T08:10:03.178Z,57.49
2023-03-28T08:10:58.776Z,56.03
2023-03-28T08:11:54.212Z,55.43
2023-03-28T08:12:49.623Z,55.33
2023-03-28T08:13:45.173Z,55.47
2023-03-28T08:14:40.417Z,55.71
2023-03-28T08:15:35.942Z,56.24
2023-03-28T08:16:31.209Z,56.26
2023-03-28T08:17:26.734Z,56.31
2023-03-28T08:18:22.325Z,56.36
2023-03-28T08:19:17.764Z,55.85
2023-03-28T08:20:13.452Z,55.24
2023-03-28T08:21:08.634Z,55.88
2023-03-28T08:22:04.126Z,54.51
2023-03-28T08:22:59.475Z,52.91
2023-03-28T08:23:54.961Z,53.56
2023-03-28T08:24:50.458Z,53.22
2023-03-28T08:25:45.687Z,52.17
2023-03-28T08:26:41.162Z,50.48
2023-03-28T08:27:36.538Z,50.30
2023-03-28T08:28:31.957Z,51.31
2023-03-28T08:29:27.440Z,50.83
2023-03-28T08:30:22.916Z,51.08
2023-03-28T08:31:18.224Z,50.99
2023-03-28T08:32:13.638Z,51.40
2023-03-28T08:33:08.817Z,51.87
2023-03-28T08:34:03.811Z,52.45
2023-03-28T08:34:59.078Z,52.47
2023-03-28T08:35:53.971Z,53.14
2023-03-28T08:36:49.053Z,53.06
2023-03-28T08:37:44.116Z,52.31
2023-03-28T08:38:39.151Z,52.00
2023-03-28T08:39:34.337Z,51.62
2023-03-28T08:40:29.231Z,51.51
2023-03-28T08:41:24.253Z,52.61
2023-03-28T08:42:19.326Z,54.08
2023-03-28T08:43:14.448Z,54.66
2023-03-28T08:44:09.795Z,54.66
2023-03-28T08:45:04.887Z,54.35
2023-03-28T08:46:00.263Z,54.28
2023-03-28T08:46:55.772Z,54.84
2023-03-28T08:47:51.273Z,55.33
2023-03-28T08:48:46.481Z,55.74
2023-03-28T08:49:42.080Z,55.67
2023-03-28T08:50:37.490Z,55.69
2023-03-28T08:51:32.982Z,56.14
2023-03-28T08:52:28.334Z,56.58
2023-03-28T08:53:24.024Z,56.04
2023-03-28T08:54:19.450Z,56.21
2023-03-28T08:55:14.948Z,56.95
2023-03-28T08:56:09.856Z,57.14
2023-03-28T08:57:04.938Z,56.54
2023-03-28T08:58:00.041Z,54.42
2023-03-28T08:58:55.235Z,53.94
2023-03-28T08:59:56.494Z,52.33
2023-03-28T09:00:51.906Z,51.97
2023-03-28T09:01:47.414Z,51.61
2023-03-28T09:02:43.113Z,52.22
2023-03-28T09:03:38.534Z,52.46
2023-03-28T09:04:34.127Z,52.58
2023-03-28T09:05:30.348Z,52.39
2023-03-28T09:06:25.677Z,52.00
2023-03-28T09:07:21.574Z,51.80
2023-03-28T09:08:19.738Z,50.64
2023-03-28T09:09:12.546Z,50.54
2023-03-28T09:10:07.985Z,51.63
2023-03-28T09:11:02.913Z,51.49
2023-03-28T09:12:01.936Z,50.89
2023-03-28T09:12:57.418Z,50.91
2023-03-28T09:13:52.805Z,51.08
2023-03-28T09:14:50.704Z,50.44
2023-03-28T09:15:44.374Z,49.72
2023-03-28T09:16:39.875Z,50.70
2023-03-28T09:17:36.207Z,51.27
2023-03-28T09:18:31.768Z,49.68
2023-03-28T09:19:36.995Z,49.04
2023-03-28T09:20:24.110Z,48.36
2023-03-28T09:21:18.564Z,48.43
2023-03-28T09:22:15.941Z,49.50
2023-03-28T09:23:10.581Z,50.74
2023-03-28T09:24:06.587Z,52.05
2023-03-28T09:25:01.686Z,53.25
2023-03-28T09:25:58.869Z,52.60
2023-03-28T09:26:53.015Z,52.60
2023-03-28T09:27:48.546Z,53.06
2023-03-28T09:28:43.895Z,52.57
2023-03-28T09:29:40.463Z,51.75
2023-03-28T09:30:35.724Z,51.70
2023-03-28T09:31:31.604Z,52.23
2023-03-28T09:32:27.022Z,52.04
2023-03-28T09:33:22.587Z,51.10
2023-03-28T09:34:18.457Z,51.27
2023-03-28T09:35:13.762Z,51.79
2023-03-28T09:36:09.612Z,51.33
2023-03-28T09:37:05.008Z,52.31
2023-03-28T09:38:00.293Z,53.25
2023-03-28T09:38:56.745Z,52.34
2023-03-28T09:39:51.764Z,50.61
2023-03-28T09:40:47.239Z,49.99
2023-03-28T09:41:43.535Z,49.25
2023-03-28T09:42:39.012Z,48.41
2023-03-28T09:43:34.993Z,47.25
2023-03-28T09:44:31.239Z,46.19
2023-03-28T09:45:25.981Z,45.67
2023-03-28T09:46:22.277Z,45.18
2023-03-28T09:47:17.725Z,44.01
2023-03-28T09:48:13.910Z,43.77
2023-03-28T09:49:08.924Z,43.90
2023-03-28T09:50:12.502Z,45.51
2023-03-28T09:51:01.424Z,46.46
2023-03-28T09:51:55.724Z,46.55
2023-03-28T09:52:51.089Z,46.85
2023-03-28T09:53:47.707Z,47.07
2023-03-28T09:54:42.929Z,46.51
2023-03-28T09:55:38.783Z,45.83
2023-03-28T09:56:34.238Z,46.23
2023-03-28T09:57:29.817Z,46.87
2023-03-28T09:58:25.591Z,47.72
2023-03-28T09:59:21.081Z,46.81
2023-03-28T10:00:16.550Z,45.40
2023-03-28T10:01:11.926Z,44.46
2023-03-28T10:02:07.673Z,44.17
2023-03-28T10:03:03.269Z,44.53
2023-03-28T10:03:58.770Z,43.89
2023-03-28T10:04:55.030Z,43.79
2023-03-28T10:05:50.308Z,43.58
2023-03-28T10:06:46.128Z,42.76
2023-03-28T10:07:41.756Z,42.39
2023-03-28T10:08:37.063Z,43.51
2023-03-28T10:09:32.758Z,44.37
2023-03-28T10:10:28.170Z,43.06
2023-03-28T10:11:23.913Z,43.07
2023-03-28T10:12:19.311Z,41.47
2023-03-28T10:13:14.965Z,41.05
2023-03-28T10:14:10.528Z,41.40
2023-03-28T10:15:05.973Z,41.71
2023-03-28T10:16:01.398Z,41.87
2023-03-28T10:16:57.791Z,41.10
2023-03-28T10:17:53.458Z,40.90
2023-03-28T10:18:48.863Z,40.78
2023-03-28T10:19:44.330Z,41.45
2023-03-28T10:20:39.722Z,42.08
2023-03-28T10:21:34.791Z,42.21
2023-03-28T10:22:29.805Z,42.01
2023-03-28T10:23:25.137Z,42.17
2023-03-28T10:24:19.987Z,42.70
2023-03-28T10:25:15.175Z,42.46
2023-03-28T10:26:10.168Z,43.04
2023-03-28T10:27:05.262Z,44.37
2023-03-28T10:28:00.483Z,45.37
2023-03-28T10:28:55.440Z,45.35
2023-03-28T10:29:50.490Z,44.76
2023-03-28T10:30:45.591Z,43.39
2023-03-28T10:31:40.674Z,42.56
2023-03-28T10:32:35.822Z,42.74
2023-03-28T10:33:30.736Z,42.73
2023-03-28T10:34:29.896Z,42.40
2023-03-28T10:35:26.635Z,41.72
2023-03-28T10:36:19.767Z,40.90
2023-03-28T10:37:14.712Z,41.04
2023-03-28T10:38:09.801Z,41.65
2023-03-28T10:39:05.039Z,42.41
2023-03-28T10:39:59.996Z,42.39
2023-03-28T10:40:55.052Z,42.23
2023-03-28T10:41:50.055Z,41.03
2023-03-28T10:42:45.040Z,41.38
2023-03-28T10:43:41.177Z,40.80
2023-03-28T10:44:36.731Z,40.38
2023-03-28T10:45:32.700Z,39.72
2023-03-28T10:46:28.164Z,39.61
2023-03-28T10:47:23.694Z,38.11
2023-03-28T10:48:19.364Z,37.66
2023-03-28T10:49:15.132Z,37.90
2023-03-28T10:50:10.742Z,37.43
2023-03-28T10:51:06.078Z,37.75
2023-03-28T10:52:01.415Z,37.21
2023-03-28T10:52:57.279Z,36.44
2023-03-28T10:53:52.683Z,36.44
2023-03-28T10:54:48.177Z,36.90
2023-03-28T10:55:44.526Z,39.24
2023-03-28T10:56:40.090Z,40.75
2023-03-28T10:57:35.927Z,41.61
2023-03-28T10:58:31.469Z,41.40
2023-03-28T10:59:26.982Z,40.62
2023-03-28T11:00:22.692Z,40.49
2023-03-28T11:01:18.168Z,40.31
2023-03-28T11:02:14.127Z,39.96
2023-03-28T11:03:09.406Z,40.26
2023-03-28T11:04:05.016Z,41.26
2023-03-28T11:05:00.694Z,42.11
2023-03-28T11:06:08.582Z,42.38
2023-03-28T11:06:52.458Z,42.86
2023-03-28T11:07:47.031Z,43.14
2023-03-28T11:08:42.888Z,43.81
2023-03-28T11:09:38.208Z,42.76
2023-03-28T11:10:33.647Z,42.42
2023-03-28T11:11:29.328Z,42.48
2023-03-28T11:12:28.984Z,41.57
2023-03-28T11:13:21.144Z,41.33
2023-03-28T11:14:15.655Z,40.55
2023-03-28T11:15:11.332Z,39.21
2023-03-28T11:16:06.874Z,39.37
2023-03-28T11:17:02.399Z,40.59
2023-03-28T11:17:58.691Z,41.88
2023-03-28T11:18:54.155Z,41.47
2023-03-28T11:19:50.000Z,41.96
2023-03-28T11:20:45.476Z,40.32
2023-03-28T11:21:40.829Z,40.02
2023-03-28T11:22:37.028Z,40.14
2023-03-28T11:23:32.446Z,39.72
2023-03-28T11:24:28.075Z,39.22
2023-03-28T11:25:23.358Z,37.61
2023-03-28T11:26:18.902Z,36.97
2023-03-28T11:27:16.581Z,36.01
2023-03-28T11:28:10.979Z,36.02
2023-03-28T11:29:06.541Z,36.72
2023-03-28T11:30:04.564Z,37.00
2023-03-28T11:31:00.224Z,37.72
2023-03-28T11:31:55.559Z,37.78
2023-03-28T11:32:51.282Z,38.07
2023-03-28T11:33:46.701Z,38.59
2023-03-28T11:34:42.866Z,38.74
2023-03-28T11:35:38.517Z,38.92
2023-03-28T11:36:33.810Z,38.29
2023-03-28T11:37:29.720Z,38.80
2023-03-28T11:38:25.108Z,39.64
2023-03-28T11:39:20.890Z,39.86
2023-03-28T11:40:16.394Z,39.76
2023-03-28T11:41:11.878Z,39.71
2023-03-28T11:42:07.712Z,39.07
2023-03-28T11:43:03.126Z,39.48
2023-03-28T11:43:58.516Z,40.14
2023-03-28T11:44:54.783Z,41.38
2023-03-28T11:45:52.486Z,41.87
2023-03-28T11:46:45.749Z,40.95
2023-03-28T11:47:40.787Z,40.06
2023-03-28T11:48:36.230Z,40.02
2023-03-28T11:49:31.034Z,40.65
2023-03-28T11:50:26.096Z,40.98
2023-03-28T11:51:21.146Z,40.99
2023-03-28T11:52:16.238Z,42.06
2023-03-28T11:53:11.269Z,42.59
2023-03-28T11:54:06.370Z,42.38